Map

Track Data

SID SEASON NUMBER BASIN SUBBASIN NAME ISO_TIME NATURE LAT LON WMO_WIND WMO_PRES WMO_AGENCY TRACK_TYPE DIST2LAND LANDFALL IFLAG USA_AGENCY USA_ATCF_ID USA_LAT USA_LON USA_RECORD USA_STATUS USA_WIND USA_PRES USA_SSHS USA_R34_NE USA_R34_SE USA_R34_SW USA_R34_NW USA_R50_NE USA_R50_SE USA_R50_SW USA_R50_NW USA_R64_NE USA_R64_SE USA_R64_SW USA_R64_NW USA_POCI USA_ROCI USA_RMW USA_EYE TOKYO_LAT TOKYO_LON TOKYO_GRADE TOKYO_WIND TOKYO_PRES TOKYO_R50_DIR TOKYO_R50_LONG TOKYO_R50_SHORT TOKYO_R30_DIR TOKYO_R30_LONG TOKYO_R30_SHORT TOKYO_LAND CMA_LAT CMA_LON CMA_CAT CMA_WIND CMA_PRES HKO_LAT HKO_LON HKO_CAT HKO_WIND HKO_PRES NEWDELHI_LAT NEWDELHI_LON NEWDELHI_GRADE NEWDELHI_WIND NEWDELHI_PRES NEWDELHI_CI NEWDELHI_DP NEWDELHI_POCI REUNION_LAT REUNION_LON REUNION_TYPE REUNION_WIND REUNION_PRES REUNION_TNUM REUNION_CI REUNION_RMW REUNION_R34_NE REUNION_R34_SE REUNION_R34_SW REUNION_R34_NW REUNION_R50_NE REUNION_R50_SE REUNION_R50_SW REUNION_R50_NW REUNION_R64_NE REUNION_R64_SE REUNION_R64_SW REUNION_R64_NW BOM_LAT BOM_LON BOM_TYPE BOM_WIND BOM_PRES BOM_TNUM BOM_CI BOM_RMW BOM_R34_NE BOM_R34_SE BOM_R34_SW BOM_R34_NW BOM_R50_NE BOM_R50_SE BOM_R50_SW BOM_R50_NW BOM_R64_NE BOM_R64_SE BOM_R64_SW BOM_R64_NW BOM_ROCI BOM_POCI BOM_EYE BOM_POS_METHOD BOM_PRES_METHOD NADI_LAT NADI_LON NADI_CAT NADI_WIND NADI_PRES WELLINGTON_LAT WELLINGTON_LON WELLINGTON_WIND WELLINGTON_PRES DS824_LAT DS824_LON DS824_STAGE DS824_WIND DS824_PRES TD9636_LAT TD9636_LON TD9636_STAGE TD9636_WIND TD9636_PRES TD9635_LAT TD9635_LON TD9635_WIND TD9635_PRES TD9635_ROCI NEUMANN_LAT NEUMANN_LON NEUMANN_CLASS NEUMANN_WIND NEUMANN_PRES MLC_LAT MLC_LON MLC_CLASS MLC_WIND MLC_PRES USA_GUST BOM_GUST BOM_GUST_PER REUNION_GUST REUNION_GUST_PER USA_SEAHGT USA_SEARAD_NE USA_SEARAD_SE USA_SEARAD_SW USA_SEARAD_NW STORM_SPEED STORM_DIR
1975110S09101 1975 35 SI WA CLARA 1975-04-20 01:00:00 NR -9.00000 100.600 25 1003 bom spur-merge 557 557 ______O_______ -1 -9.00000 100.600 20 25 1003 2.00000 2.00000 9 174
1975110S09101 1975 35 SI WA CLARA 1975-04-20 03:00:00 NR -9.28395 100.602 spur-merge 579 579 ______P_______ -1 -9.28395 100.602 20 25 1002 8 0
1975110S09101 1975 35 SI WA CLARA 1975-04-20 04:00:00 NR -9.40000 100.600 25 1002 bom spur-merge 584 584 ______O_______ -1 -9.40000 100.600 20 25 1002 2.00000 6 0
1975110S09101 1975 35 SI WA CLARA 1975-04-20 06:00:00 TS -9.58538 100.594 spur-merge 595 595 ______P__O____ -1 -9.58173 100.592 20 25 1000 -9.60000 100.600 TC 30 1000 6 0
1975110S09101 1975 35 SI WA CLARA 1975-04-20 07:00:00 TS -9.71991 100.610 25 1000 bom spur-merge 601 601 ______O__P____ -1 -9.70000 100.600 20 25 1000 2.00000 -9.75973 100.630 TC 30 999 10 171
1975110S09101 1975 35 SI WA CLARA 1975-04-20 09:00:00 TS -10.0925 100.675 spur-merge 618 618 ______P__P____ -1 -10.1074 100.661 20 28 999 -10.0725 100.692 TC 32 999 11 169
1975110S09101 1975 35 SI WA CLARA 1975-04-20 10:00:00 TS -10.2611 100.713 30 999 bom spur-merge 631 630 ______O__P____ -1 -10.3000 100.700 20 30 999 2.50000 -10.2222 100.726 TC 33 998 9 166
1975110S09101 1975 35 SI WA CLARA 1975-04-20 12:00:00 TS -10.5042 100.779 spur-merge 637 637 ______P__O____ -1 -10.5084 100.759 20 30 998 -10.5000 100.800 TC 35 998 7 163
1975110S09101 1975 35 SI WA CLARA 1975-04-20 13:00:00 TS -10.6127 100.821 30 998 bom spur-merge 644 643 ______O__P____ -1 -10.6000 100.800 20 30 998 2.50000 -10.6255 100.842 TC 35 997 8 158
1975110S09101 1975 35 SI WA CLARA 1975-04-20 15:00:00 TS -10.8633 100.931 spur-merge 659 651 ______P__P____ -1 -10.8691 100.928 20 30 996 -10.8575 100.935 TC 37 996 8 156
1975110S09101 1975 35 SI WA CLARA 1975-04-20 16:00:00 TS -10.9848 100.993 30 996 bom spur-merge 659 659 ______O__P____ -1 -11.0000 101.000 20 30 996 2.50000 -10.9696 100.987 TC 38 996 8 152
1975110S09101 1975 35 SI WA CLARA 1975-04-20 18:00:00 TS -11.1988 101.117 spur-merge 667 667 ______P__O____ -1 -11.1975 101.133 20 33 995 -11.2000 101.100 TC 40 995 8 151
1975110S09101 1975 35 SI WA CLARA 1975-04-20 19:00:00 TS -11.3164 101.179 35 995 bom spur-merge 668 668 ______O__P____ -1 -11.3000 101.200 30 35 995 3.00000 -11.3329 101.158 TC 40 994 9 153
1975110S09101 1975 35 SI WA CLARA 1975-04-20 21:00:00 TS -11.5844 101.313 spur-merge 687 687 ______P__P____ -1 -11.5612 101.341 30 35 995 -11.6075 101.285 TC 40 994 9 154
1975110S09101 1975 35 SI WA CLARA 1975-04-20 22:00:00 TS -11.7218 101.377 35 995 bom spur-merge 689 689 ______O__P____ -1 -11.7000 101.400 30 35 995 3.00000 -11.7437 101.353 TC 40 994 9 158
1975110S09101 1975 35 SI WA CLARA 1975-04-21 00:00:00 TS -11.9833 101.482 spur-merge 710 710 ______P__O____ -1 -11.9667 101.464 30 38 994 -12.0000 101.500 TC 40 994 8 158
1975110S09101 1975 35 SI WA CLARA 1975-04-21 01:00:00 TS -12.1018 101.535 40 994 bom spur-merge 719 713 ______O__P____ -1 -12.1000 101.500 30 40 994 3.00000 -12.1035 101.570 TC 40 993 8 154
1975110S09101 1975 35 SI WA CLARA 1975-04-21 03:00:00 TS -12.3374 101.662 spur-merge 725 735 ______P__P____ -1 -12.3824 101.604 30 40 994 -12.2924 101.720 TC 40 993 8 148
1975110S09101 1975 35 SI WA CLARA 1975-04-21 04:00:00 TS -12.4435 101.752 40 994 bom spur-merge 729 729 ______O__P____ -1 -12.5000 101.700 30 40 994 3.00000 3.00000 -12.3871 101.804 TC 40 993 9 128
1975110S09101 1975 35 SI WA CLARA 1975-04-21 06:00:00 TS -12.6103 102.016 spur-merge 738 733 ______P__O____ -1 -12.6205 102.033 30 40 993 -12.6000 102.000 TC 40 993 10 125
1975110S09101 1975 35 SI WA CLARA 1975-04-21 07:00:00 TS -12.7178 102.159 40 993 bom spur-merge 738 738 ______O__P____ -1 -12.7000 102.200 30 40 993 3.00000 -12.7355 102.119 TC 40 992 11 139
1975110S09101 1975 35 SI WA CLARA 1975-04-21 09:00:00 TS -13.0300 102.394 spur-merge 759 765 ______P__P____ -1 -13.0249 102.403 30 40 992 -13.0351 102.385 TC 42 992 12 144
1975110S09101 1975 35 SI WA CLARA 1975-04-21 10:00:00 TS -13.1958 102.512 40 992 bom spur-merge 775 771 ______O__P____ -1 -13.2000 102.500 30 40 992 3.00000 -13.1917 102.525 TC 43 991 12 140
1975110S09101 1975 35 SI WA CLARA 1975-04-21 12:00:00 TS -13.4860 102.781 spur-merge 788 788 ______P__O____ -1 -13.4721 102.761 30 40 991 -13.5000 102.800 TC 45 991 12 138
1975110S09101 1975 35 SI WA CLARA 1975-04-21 13:00:00 TS -13.6195 102.910 40 991 bom spur-merge 792 792 ______O__P____ -1 -13.6000 102.900 30 40 991 3.00000 -13.6390 102.920 TC 45 990 11 137
1975110S09101 1975 35 SI WA CLARA 1975-04-21 15:00:00 TS -13.8870 103.162 spur-merge 807 807 ______P__P____ -1 -13.8667 103.175 30 43 990 -13.9074 103.150 TC 47 990 11 138
1975110S09101 1975 35 SI WA CLARA 1975-04-21 16:00:00 TS -14.0193 103.282 45 990 bom spur-merge 813 813 ______O__P____ -1 -14.0000 103.300 30 45 990 3.00000 -14.0387 103.264 TC 48 989 10 140
1975110S09101 1975 35 SI WA CLARA 1975-04-21 18:00:00 TS -14.2833 103.507 spur-merge 835 831 ______P__O____ -1 -14.2667 103.513 30 48 989 -14.3000 103.500 TC 50 989 10 141
1975110S09101 1975 35 SI WA CLARA 1975-04-21 19:00:00 TS -14.4167 103.616 50 989 bom spur-merge 841 841 ______O__P____ -1 -14.4000 103.600 30 50 989 3.50000 -14.4333 103.633 TC 50 988 10 145
1975110S09101 1975 35 SI WA CLARA 1975-04-21 21:00:00 TS -14.6833 103.800 spur-merge 865 861 ______P__P____ -1 -14.6665 103.692 30 50 989 -14.7000 103.908 TC 50 988 10 144
1975110S09101 1975 35 SI WA CLARA 1975-04-21 22:00:00 TS -14.8167 103.922 50 989 bom spur-merge 872 872 ______O__P____ -1 -14.8000 103.800 30 50 989 3.50000 -14.8334 104.044 TC 50 988 13 128
1975110S09101 1975 35 SI WA CLARA 1975-04-22 00:00:00 TS -15.0835 104.324 spur-merge 892 889 ______P__O____ -1 -15.0669 104.348 30 50 988 -15.1000 104.300 TC 50 988 14 125
1975110S09101 1975 35 SI WA CLARA 1975-04-22 01:00:00 TS -15.2167 104.510 50 988 bom spur-merge 897 897 ______O__P____ -1 -15.2000 104.600 30 50 988 3.50000 3.50000 -15.2333 104.415 TC 50 987 11 138
1975110S09101 1975 35 SI WA CLARA 1975-04-22 03:00:00 TS -15.4833 104.702 spur-merge 925 925 ______P__P____ -1 -15.4665 104.793 30 50 987 -15.5000 104.622 TC 50 987 9 148
1975110S09101 1975 35 SI WA CLARA 1975-04-22 04:00:00 TS -15.6167 104.767 50 987 bom spur-merge 934 934 ______O__P____ -1 -15.6000 104.800 30 50 987 3.50000 -15.6333 104.718 TC 50 986 9 152
1975110S09101 1975 35 SI WA CLARA 1975-04-22 06:00:00 TS -15.8833 104.921 spur-merge 965 _________O____ -1 30 -15.9000 104.900 TC 50 986 9 151

About IBTrACS Database

This database is a web-friendly format of International Best Track Archive for Climate Stewardship (IBTrACS), a global best track data archive curated by NOAA dating back to 1842.

Updated: 2021-12-01